Time;durP1;ratioP1;P1;durP2;ratioP2;P2;SDS_P1;SDS_P2;PMS_P1;PMS_P2;Temp;Humidity;BMP_temperature;BMP_pressure;BME280_temperature;BME280_humidity;BME280_pressure;Samples;Min_cycle;Max_cycle;Signal;HPM_P1;HPM_P2
2021/10/20 00:03:49;;;;;;;17.30;11.90;;;;;;;-140.79;100.00;63287.88;4585153;26;20066;-63
2021/10/20 00:06:14;;;;;;;17.70;12.85;;;;;;;-140.79;100.00;63287.88;5002585;28;20040;-62
2021/10/20 00:08:41;;;;;;;17.25;12.18;;;;;;;-140.79;100.00;63287.88;5005927;28;20092;-64
2021/10/20 00:11:06;;;;;;;16.13;12.07;;;;;;;-140.79;100.00;63287.88;5006242;28;20026;-63
2021/10/20 00:13:32;;;;;;;16.40;11.73;;;;;;;-140.79;100.00;63287.88;5005960;28;20527;-64
2021/10/20 00:15:57;;;;;;;17.10;12.32;;;;;;;-140.79;100.00;63287.88;5005927;28;20030;-63
2021/10/20 00:18:22;;;;;;;15.90;11.48;;;;;;;-140.79;100.00;63287.88;5005779;28;20029;-62
2021/10/20 00:20:48;;;;;;;18.02;12.55;;;;;;;-140.79;100.00;63287.88;5005884;28;20083;-62
2021/10/20 00:23:13;;;;;;;16.05;11.68;;;;;;;-140.79;100.00;63287.88;5006195;28;20091;-62
2021/10/20 00:25:40;;;;;;;16.80;12.15;;;;;;;-140.79;100.00;63287.88;4972172;28;20538;-63
2021/10/20 00:28:05;;;;;;;16.17;11.43;;;;;;;-140.79;100.00;63287.88;5005741;28;20057;-63
2021/10/20 00:30:31;;;;;;;16.40;11.60;;;;;;;-140.79;100.00;63287.88;5005649;28;20064;-63
2021/10/20 00:32:57;;;;;;;16.58;11.63;;;;;;;-140.79;100.00;63287.88;5005767;28;20126;-63
2021/10/20 00:35:22;;;;;;;16.70;11.75;;;;;;;-140.79;100.00;63287.88;5005690;28;20029;-63
2021/10/20 00:37:48;;;;;;;16.67;11.48;;;;;;;-140.79;100.00;63287.88;5005590;28;20075;-62
2021/10/20 00:40:13;;;;;;;15.73;11.52;;;;;;;-140.79;100.00;63287.88;4987832;28;20540;-62
2021/10/20 00:42:39;;;;;;;16.10;11.70;;;;;;;-140.79;100.00;63287.88;5005548;28;20053;-63
2021/10/20 00:45:05;;;;;;;16.50;11.50;;;;;;;-140.79;100.00;63287.88;5005409;28;20418;-62
2021/10/20 00:47:31;;;;;;;16.50;11.65;;;;;;;-140.79;100.00;63287.88;5005298;28;20034;-62
2021/10/20 00:49:57;;;;;;;15.30;10.43;;;;;;;-140.79;100.00;63287.88;5005388;28;20052;-62
2021/10/20 00:52:23;;;;;;;15.32;11.23;;;;;;;-140.79;100.00;63287.88;5005392;28;20459;-62
2021/10/20 00:54:53;;;;;;;14.85;11.00;;;;;;;-140.79;100.00;63287.88;5005033;28;20022;-62
2021/10/20 00:57:18;;;;;;;16.73;11.10;;;;;;;-140.79;100.00;63287.88;5005143;28;20044;-63
2021/10/20 00:59:44;;;;;;;15.55;11.27;;;;;;;-140.79;100.00;63287.88;4987351;28;20033;-63
2021/10/20 01:02:09;;;;;;;15.38;10.80;;;;;;;-140.79;100.00;63287.88;4986283;28;20026;-63
2021/10/20 01:04:35;;;;;;;13.90;10.63;;;;;;;-140.79;100.00;63287.88;5003100;28;20048;-63
2021/10/20 01:07:01;;;;;;;14.68;10.55;;;;;;;-140.79;100.00;63287.88;4987426;28;20133;-63
2021/10/20 01:09:26;;;;;;;15.82;11.23;;;;;;;-140.79;100.00;63287.88;5005077;28;20030;-62
2021/10/20 01:11:52;;;;;;;15.43;10.98;;;;;;;-140.79;100.00;63287.88;4971136;28;20483;-62
2021/10/20 01:14:17;;;;;;;13.35;10.77;;;;;;;-140.79;100.00;63287.88;4987776;28;20103;-62
2021/10/20 01:16:43;;;;;;;14.70;11.02;;;;;;;-140.79;100.00;63287.88;4987615;28;20042;-62
2021/10/20 01:19:08;;;;;;;14.60;10.45;;;;;;;-140.79;100.00;63287.88;5005129;28;20037;-62
2021/10/20 01:21:34;;;;;;;14.52;10.02;;;;;;;-140.79;100.00;63287.88;4987685;28;20061;-62
2021/10/20 01:24:00;;;;;;;14.88;10.70;;;;;;;-140.79;100.00;63287.88;5005374;28;20030;-62
2021/10/20 01:26:26;;;;;;;14.65;10.68;;;;;;;-140.79;100.00;63287.88;4971233;28;20034;-63
2021/10/20 01:28:51;;;;;;;14.77;10.15;;;;;;;-140.79;100.00;63287.88;5004645;28;20033;-63
2021/10/20 01:31:17;;;;;;;14.50;9.90;;;;;;;-140.79;100.00;63287.88;5005123;28;20025;-62
2021/10/20 01:33:42;;;;;;;14.07;9.68;;;;;;;-140.79;100.00;63287.88;4988121;28;20030;-63
2021/10/20 01:36:08;;;;;;;13.88;9.93;;;;;;;-140.79;100.00;63287.88;5006706;28;20522;-63
2021/10/20 01:38:33;;;;;;;14.57;10.20;;;;;;;-140.79;100.00;63287.88;5006150;28;20145;-62
2021/10/20 01:40:59;;;;;;;13.63;10.40;;;;;;;-140.79;100.00;63287.88;5005074;28;20025;-62
2021/10/20 01:43:25;;;;;;;12.88;10.15;;;;;;;-140.79;100.00;63287.88;5005158;28;20030;-62
2021/10/20 01:45:50;;;;;;;13.90;10.20;;;;;;;-140.79;100.00;63287.88;4970970;28;20046;-62
2021/10/20 01:48:16;;;;;;;14.73;10.68;;;;;;;-140.79;100.00;63287.88;5004786;28;20030;-62
2021/10/20 01:50:41;;;;;;;13.00;9.50;;;;;;;-140.79;100.00;63287.88;5004940;28;20109;-63
2021/10/20 01:53:07;;;;;;;12.68;9.50;;;;;;;-140.79;100.00;63287.88;5004747;28;20061;-63
2021/10/20 01:55:32;;;;;;;13.52;9.95;;;;;;;-140.79;100.00;63287.88;5004661;28;20495;-62
2021/10/20 01:57:58;;;;;;;13.02;9.35;;;;;;;-140.79;100.00;63287.88;5004319;28;20530;-63
2021/10/20 02:00:23;;;;;;;13.20;9.77;;;;;;;-140.79;100.00;63287.88;5004706;28;20025;-63
2021/10/20 02:02:48;;;;;;;13.95;9.75;;;;;;;-140.79;100.00;63287.88;5001783;28;20050;-62
2021/10/20 02:05:14;;;;;;;13.07;9.43;;;;;;;-140.79;100.00;63287.88;5004663;28;20025;-63
2021/10/20 02:07:40;;;;;;;12.43;9.68;;;;;;;-140.79;100.00;63287.88;4986901;28;20049;-63
2021/10/20 02:10:10;;;;;;;12.35;9.23;;;;;;;-140.79;100.00;63287.88;5004558;28;20025;-63
2021/10/20 02:12:36;;;;;;;12.93;9.15;;;;;;;-140.79;100.00;63287.88;5004680;28;20037;-63
2021/10/20 02:15:02;;;;;;;13.35;9.55;;;;;;;-140.79;100.00;63287.88;5007456;28;20036;-62
2021/10/20 02:17:27;;;;;;;13.23;9.05;;;;;;;-140.79;100.00;63287.88;5008160;28;20177;-62
2021/10/20 02:19:53;;;;;;;13.73;9.45;;;;;;;-140.79;100.00;63287.88;5008032;28;20092;-63
2021/10/20 02:22:18;;;;;;;13.18;9.30;;;;;;;-140.79;100.00;63287.88;5007997;28;20029;-62
2021/10/20 02:24:43;;;;;;;13.45;10.02;;;;;;;-140.79;100.00;63287.88;5008145;28;20466;-62
2021/10/20 02:27:09;;;;;;;11.88;9.13;;;;;;;-140.79;100.00;63287.88;5007871;28;20480;-62
2021/10/20 02:29:34;;;;;;;13.65;8.93;;;;;;;-140.79;100.00;63287.88;4973649;28;20029;-63
2021/10/20 02:32:00;;;;;;;13.25;9.88;;;;;;;-140.79;100.00;63287.88;5007646;28;20033;-63
2021/10/20 02:34:26;;;;;;;11.80;9.23;;;;;;;-140.79;100.00;63287.88;4990165;28;20069;-62
2021/10/20 02:36:51;;;;;;;13.38;9.55;;;;;;;-140.79;100.00;63287.88;5007630;28;20033;-62
2021/10/20 02:39:17;;;;;;;11.45;8.70;;;;;;;-140.79;100.00;63287.88;5007387;28;20022;-63
2021/10/20 02:41:42;;;;;;;12.20;9.00;;;;;;;-140.79;100.00;63287.88;5007306;28;20053;-63
2021/10/20 02:44:08;;;;;;;12.32;8.88;;;;;;;-140.79;100.00;63287.88;5007792;28;20639;-63
2021/10/20 02:46:33;;;;;;;10.82;8.18;;;;;;;-140.79;100.00;63287.88;5007268;28;20057;-63
2021/10/20 02:48:59;;;;;;;13.20;9.23;;;;;;;-140.79;100.00;63287.88;5007270;28;20026;-63
2021/10/20 02:51:24;;;;;;;12.98;8.95;;;;;;;-140.79;100.00;63287.88;5007308;28;20512;-63
2021/10/20 02:53:50;;;;;;;12.40;8.82;;;;;;;-140.79;100.00;63287.88;5007885;28;20053;-63
2021/10/20 02:56:17;;;;;;;11.50;8.57;;;;;;;-140.79;100.00;63287.88;5007150;28;20561;-62
2021/10/20 02:58:43;;;;;;;12.30;8.90;;;;;;;-140.79;100.00;63287.88;5005035;28;20057;-62
2021/10/20 03:01:09;;;;;;;12.65;8.93;;;;;;;-140.79;100.00;63287.88;4989740;28;20064;-62
2021/10/20 03:03:34;;;;;;;11.38;8.18;;;;;;;-140.79;100.00;63287.88;5004825;28;20049;-63
2021/10/20 03:06:00;;;;;;;12.45;8.43;;;;;;;-140.79;100.00;63287.88;5007112;28;20026;-62
2021/10/20 03:08:25;;;;;;;10.93;8.48;;;;;;;-140.79;100.00;63287.88;5006866;28;20601;-62
2021/10/20 03:10:51;;;;;;;12.23;8.57;;;;;;;-140.79;100.00;63287.88;5007045;28;20033;-62
2021/10/20 03:13:16;;;;;;;11.77;8.85;;;;;;;-140.79;100.00;63287.88;4989368;28;20029;-62
2021/10/20 03:15:41;;;;;;;11.60;8.55;;;;;;;-140.79;100.00;63287.88;5007118;28;20033;-63
2021/10/20 03:18:07;;;;;;;11.93;8.82;;;;;;;-140.79;100.00;63287.88;5006815;28;20026;-62
2021/10/20 03:20:32;;;;;;;11.27;8.25;;;;;;;-140.79;100.00;63287.88;5007041;28;20033;-62
2021/10/20 03:22:58;;;;;;;12.00;8.85;;;;;;;-140.79;100.00;63287.88;5006828;28;20060;-62
2021/10/20 03:25:26;;;;;;;10.65;8.30;;;;;;;-140.79;100.00;63287.88;5006005;28;20029;-62
2021/10/20 03:27:52;;;;;;;11.02;8.20;;;;;;;-140.79;100.00;63287.88;5005196;28;20109;-62
2021/10/20 03:30:18;;;;;;;11.95;8.90;;;;;;;-140.79;100.00;63287.88;5006952;28;20028;-62
2021/10/20 03:32:43;;;;;;;12.98;9.20;;;;;;;-140.79;100.00;63287.88;5006473;28;20141;-62
2021/10/20 03:35:09;;;;;;;11.07;8.00;;;;;;;-140.79;100.00;63287.88;4989300;28;20502;-62
2021/10/20 03:37:35;;;;;;;11.20;8.27;;;;;;;-140.79;100.00;63287.88;5006233;28;20522;-61
2021/10/20 03:40:01;;;;;;;11.05;8.00;;;;;;;-140.79;100.00;63287.88;5006111;28;20041;-61
2021/10/20 03:42:26;;;;;;;11.48;8.50;;;;;;;-140.79;100.00;63287.88;5005891;28;20025;-62
2021/10/20 03:44:52;;;;;;;9.98;7.78;;;;;;;-140.79;100.00;63287.88;5005918;28;20026;-62
2021/10/20 03:47:19;;;;;;;11.13;8.43;;;;;;;-140.79;100.00;63287.88;5006220;28;20029;-62
2021/10/20 03:49:48;;;;;;;11.60;8.43;;;;;;;-140.79;100.00;63287.88;4988825;28;20026;-61
2021/10/20 03:55:39;;;;;;;10.93;7.97;;;;;;;-140.79;100.00;63287.88;4821996;29;20398;-62
2021/10/20 03:58:05;;;;;;;11.52;7.97;;;;;;;-140.79;100.00;63287.88;4972843;28;20029;-61
2021/10/20 04:00:30;;;;;;;9.85;7.47;;;;;;;-140.79;100.00;63287.88;5004301;28;20064;-61
2021/10/20 04:02:56;;;;;;;13.35;8.02;;;;;;;-140.79;100.00;63287.88;5003376;28;20045;-61
2021/10/20 04:05:22;;;;;;;13.30;8.40;;;;;;;-140.79;100.00;63287.88;4990588;28;20133;-61
2021/10/20 04:07:49;;;;;;;12.07;8.00;;;;;;;-140.79;100.00;63287.88;5007132;28;20040;-62
2021/10/20 04:10:25;;;;;;;11.02;7.82;;;;;;;-140.79;100.00;63287.88;5019537;28;20032;-62
2021/10/20 04:12:51;;;;;;;12.30;8.43;;;;;;;-140.79;100.00;63287.88;5008193;28;20041;-61
2021/10/20 04:15:17;;;;;;;10.40;8.20;;;;;;;-140.79;100.00;63287.88;5005176;28;20534;-62
2021/10/20 04:17:42;;;;;;;10.35;7.55;;;;;;;-140.79;100.00;63287.88;5003849;28;20133;-65
2021/10/20 04:20:09;;;;;;;10.73;8.02;;;;;;;-140.79;100.00;63287.88;5003834;28;20543;-62
2021/10/20 04:22:35;;;;;;;9.77;7.30;;;;;;;-140.79;100.00;63287.88;5003923;28;20409;-62
2021/10/20 04:25:00;;;;;;;10.43;7.93;;;;;;;-140.79;100.00;63287.88;5002762;28;20164;-63
2021/10/20 04:27:26;;;;;;;10.02;7.07;;;;;;;-140.79;100.00;63287.88;4986059;28;20049;-62
2021/10/20 04:29:52;;;;;;;9.95;7.30;;;;;;;-140.79;100.00;63287.88;5001674;28;20107;-62
2021/10/20 04:32:17;;;;;;;10.15;7.43;;;;;;;-140.79;100.00;63287.88;5013916;28;20087;-63
2021/10/20 04:34:42;;;;;;;9.95;7.60;;;;;;;-140.79;100.00;63287.88;5014966;28;20030;-65
2021/10/20 04:37:08;;;;;;;11.73;7.57;;;;;;;-140.79;100.00;63287.88;4972617;28;20038;-64
2021/10/20 04:39:33;;;;;;;9.75;7.32;;;;;;;-140.79;100.00;63287.88;5003643;28;20038;-64
2021/10/20 04:41:59;;;;;;;9.15;6.88;;;;;;;-140.79;100.00;63287.88;4992115;28;20034;-64
2021/10/20 04:44:24;;;;;;;9.90;7.10;;;;;;;-140.79;100.00;63287.88;4979885;28;20042;-63
2021/10/20 04:46:50;;;;;;;8.70;6.88;;;;;;;-140.79;100.00;63287.88;5019912;28;20029;-63
2021/10/20 04:49:15;;;;;;;9.63;6.70;;;;;;;-140.79;100.00;63287.88;5002831;28;20058;-63
2021/10/20 04:51:41;;;;;;;10.13;7.25;;;;;;;-140.79;100.00;63287.88;5004448;28;20616;-64
2021/10/20 04:54:06;;;;;;;13.60;7.90;;;;;;;-140.79;100.00;63287.88;4999890;28;20112;-63
2021/10/20 04:56:32;;;;;;;15.23;10.77;;;;;;;-140.79;100.00;63287.88;4988279;28;20472;-63
2021/10/20 04:58:57;;;;;;;30.30;17.27;;;;;;;-140.79;100.00;63287.88;5005572;28;20476;-63
2021/10/20 05:01:23;;;;;;;49.08;26.98;;;;;;;-140.79;100.00;63287.88;4999374;28;20033;-62
2021/10/20 05:03:48;;;;;;;51.17;26.80;;;;;;;-140.79;100.00;63287.88;4977704;28;20053;-62
2021/10/20 05:06:13;;;;;;;51.10;27.27;;;;;;;-140.79;100.00;63287.88;4976204;28;20049;-60
2021/10/20 05:08:39;;;;;;;48.63;26.10;;;;;;;-140.79;100.00;63287.88;4994632;28;20038;-61
2021/10/20 05:11:04;;;;;;;43.67;25.30;;;;;;;-140.79;100.00;63287.88;5003187;28;20088;-62
2021/10/20 05:13:30;;;;;;;45.58;24.70;;;;;;;-140.79;100.00;63287.88;5003634;28;20084;-62
2021/10/20 05:15:55;;;;;;;42.17;23.52;;;;;;;-140.79;100.00;63287.88;4998272;28;20029;-62
2021/10/20 05:18:20;;;;;;;42.08;23.50;;;;;;;-140.79;100.00;63287.88;4998528;28;20022;-65
2021/10/20 05:20:47;;;;;;;40.20;22.98;;;;;;;-140.79;100.00;63287.88;5019028;28;20038;-64
2021/10/20 05:23:13;;;;;;;38.60;22.13;;;;;;;-140.79;100.00;63287.88;5005490;28;20124;-63
2021/10/20 05:25:38;;;;;;;38.35;21.15;;;;;;;-140.79;100.00;63287.88;5016811;28;20480;-62
2021/10/20 05:28:07;;;;;;;38.03;21.35;;;;;;;-140.79;100.00;63287.88;4997968;28;20037;-61
2021/10/20 05:30:33;;;;;;;35.67;21.65;;;;;;;-140.79;100.00;63287.88;5018451;28;20026;-64
2021/10/20 05:32:58;;;;;;;36.80;20.75;;;;;;;-140.79;100.00;63287.88;5014401;28;20522;-62
2021/10/20 05:35:24;;;;;;;33.50;19.50;;;;;;;-140.79;100.00;63287.88;5000560;28;20074;-62
2021/10/20 05:37:50;;;;;;;34.05;18.90;;;;;;;-140.79;100.00;63287.88;5017031;28;20315;-62
2021/10/20 05:40:16;;;;;;;29.70;18.23;;;;;;;-140.79;100.00;63287.88;5013197;28;20043;-62
2021/10/20 05:42:42;;;;;;;29.85;18.25;;;;;;;-140.79;100.00;63287.88;5017181;28;20030;-62
2021/10/20 05:45:08;;;;;;;31.60;18.67;;;;;;;-140.79;100.00;63287.88;4996546;28;20613;-63
2021/10/20 05:47:33;;;;;;;31.30;18.20;;;;;;;-140.79;100.00;63287.88;5017788;28;20093;-62
2021/10/20 05:49:59;;;;;;;28.00;17.38;;;;;;;-140.79;100.00;63287.88;5016479;28;20514;-63
2021/10/20 05:52:24;;;;;;;29.70;17.33;;;;;;;-140.79;100.00;63287.88;5017267;28;20017;-63
2021/10/20 05:54:49;;;;;;;27.75;17.20;;;;;;;-140.79;100.00;63287.88;5015495;28;20476;-62
2021/10/20 05:57:15;;;;;;;29.45;17.45;;;;;;;-140.79;100.00;63287.88;5018115;28;20503;-66
2021/10/20 05:59:40;;;;;;;22.92;14.35;;;;;;;-140.79;100.00;63287.88;5005666;28;20072;-66
2021/10/20 06:02:09;;;;;;;25.25;15.68;;;;;;;-140.79;100.00;63287.88;5006942;28;20026;-64
2021/10/20 06:04:35;;;;;;;23.65;15.38;;;;;;;-140.79;100.00;63287.88;4977300;28;20532;-65
2021/10/20 06:07:00;;;;;;;24.95;15.25;;;;;;;-140.79;100.00;63287.88;4994709;28;20027;-62
2021/10/20 06:09:26;;;;;;;26.83;15.48;;;;;;;-140.79;100.00;63287.88;4988403;28;20064;-63
2021/10/20 06:11:51;;;;;;;27.15;16.02;;;;;;;-140.79;100.00;63287.88;5005937;28;20030;-63
2021/10/20 06:14:17;;;;;;;24.25;15.35;;;;;;;-140.79;100.00;63287.88;5004380;28;20092;-64
2021/10/20 06:16:42;;;;;;;23.95;14.93;;;;;;;-140.79;100.00;63287.88;4989350;28;20034;-62
2021/10/20 06:19:08;;;;;;;23.35;14.07;;;;;;;-140.79;100.00;63287.88;5005176;28;20484;-63
2021/10/20 06:21:34;;;;;;;24.33;15.48;;;;;;;-140.79;100.00;63287.88;5006235;28;20042;-63
2021/10/20 06:23:59;;;;;;;26.38;13.75;;;;;;;-140.79;100.00;63287.88;5004703;28;20025;-63
2021/10/20 06:26:25;;;;;;;24.60;15.13;;;;;;;-140.79;100.00;63287.88;4990028;28;20030;-66
2021/10/20 06:28:50;;;;;;;23.98;14.68;;;;;;;-140.79;100.00;63287.88;5015620;28;20033;-65
2021/10/20 06:31:16;;;;;;;23.63;14.40;;;;;;;-140.79;100.00;63287.88;5007257;28;20037;-65
2021/10/20 06:33:42;;;;;;;22.25;13.75;;;;;;;-140.79;100.00;63287.88;5008716;28;20042;-66
2021/10/20 06:36:21;;;;;;;23.25;14.73;;;;;;;-140.79;100.00;63287.88;5022481;28;20394;-65
2021/10/20 06:38:46;;;;;;;20.85;13.90;;;;;;;-140.79;100.00;63287.88;5012333;28;20116;-66
2021/10/20 06:41:12;;;;;;;19.58;13.00;;;;;;;-140.79;100.00;63287.88;5001126;28;20507;-65
2021/10/20 06:43:37;;;;;;;23.77;13.63;;;;;;;-140.79;100.00;63287.88;5005121;28;20509;-65
2021/10/20 06:46:03;;;;;;;20.10;13.40;;;;;;;-140.79;100.00;63287.88;4988933;28;20036;-64
2021/10/20 06:48:28;;;;;;;20.65;12.73;;;;;;;-140.79;100.00;63287.88;5005713;28;20035;-65
2021/10/20 06:50:54;;;;;;;19.35;12.00;;;;;;;-140.79;100.00;63287.88;4998291;28;20041;-65
2021/10/20 06:53:19;;;;;;;19.25;12.15;;;;;;;-140.79;100.00;63287.88;4991922;28;20034;-64
2021/10/20 06:55:45;;;;;;;19.67;12.10;;;;;;;-140.79;100.00;63287.88;5023414;28;20040;-65
2021/10/20 06:58:11;;;;;;;20.63;12.55;;;;;;;-140.79;100.00;63287.88;4998758;28;20048;-65
2021/10/20 07:00:36;;;;;;;16.67;11.80;;;;;;;-140.79;100.00;63287.88;4997968;28;20060;-65
2021/10/20 07:03:02;;;;;;;17.85;12.02;;;;;;;-140.79;100.00;63287.88;5016876;28;20041;-65
2021/10/20 07:05:28;;;;;;;17.85;11.95;;;;;;;-140.79;100.00;63287.88;5016464;28;20040;-64
2021/10/20 07:07:53;;;;;;;19.38;10.98;;;;;;;-140.79;100.00;63287.88;5004729;28;20029;-65
2021/10/20 07:10:19;;;;;;;18.20;11.45;;;;;;;-140.79;100.00;63287.88;5004417;28;20033;-65
2021/10/20 07:12:44;;;;;;;17.17;11.95;;;;;;;-140.79;100.00;63287.88;4986668;28;20080;-64
2021/10/20 07:15:09;;;;;;;18.55;11.90;;;;;;;-140.79;100.00;63287.88;4985327;28;20413;-65
2021/10/20 07:17:36;;;;;;;17.75;11.25;;;;;;;-140.79;100.00;63287.88;4982885;28;20026;-65
2021/10/20 07:20:01;;;;;;;18.00;11.85;;;;;;;-140.79;100.00;63287.88;4997048;28;20492;-65
2021/10/20 07:22:27;;;;;;;17.25;11.68;;;;;;;-140.79;100.00;63287.88;5001717;28;20029;-65
2021/10/20 07:24:53;;;;;;;16.73;11.23;;;;;;;-140.79;100.00;63287.88;5003542;28;20033;-65
2021/10/20 07:27:18;;;;;;;17.65;11.40;;;;;;;-140.79;100.00;63287.88;5000642;28;20467;-64
2021/10/20 07:29:46;;;;;;;18.20;11.38;;;;;;;-140.79;100.00;63287.88;4984423;28;20535;-65
2021/10/20 07:32:12;;;;;;;18.08;11.68;;;;;;;-140.79;100.00;63287.88;4995308;28;20036;-65
2021/10/20 07:34:38;;;;;;;17.92;10.73;;;;;;;-140.79;100.00;63287.88;5002650;28;20040;-65
2021/10/20 07:37:04;;;;;;;15.63;10.88;;;;;;;-140.79;100.00;63287.88;4991853;28;20019;-65
2021/10/20 07:39:29;;;;;;;15.77;11.40;;;;;;;-140.79;100.00;63287.88;4992783;28;20096;-65
2021/10/20 07:41:55;;;;;;;16.77;10.80;;;;;;;-140.79;100.00;63287.88;4994323;28;20025;-65
2021/10/20 07:44:20;;;;;;;14.43;10.18;;;;;;;-140.79;100.00;63287.88;4985880;28;20087;-65
2021/10/20 07:46:46;;;;;;;16.23;10.45;;;;;;;-140.79;100.00;63287.88;5001462;28;20042;-65
2021/10/20 07:49:12;;;;;;;15.82;10.13;;;;;;;-140.79;100.00;63287.88;4997729;28;20036;-65
2021/10/20 07:51:38;;;;;;;14.77;10.82;;;;;;;-140.79;100.00;63287.88;5014782;28;20091;-65
2021/10/20 07:54:03;;;;;;;15.43;10.25;;;;;;;-140.79;100.00;63287.88;5020237;28;20029;-65
2021/10/20 07:56:33;;;;;;;18.95;10.75;;;;;;;-140.79;100.00;63287.88;5015246;28;20030;-65
2021/10/20 07:59:01;;;;;;;16.92;10.82;;;;;;;-140.79;100.00;63287.88;5002448;28;20017;-65
2021/10/20 08:01:27;;;;;;;16.75;10.48;;;;;;;-140.79;100.00;63287.88;5012195;28;20570;-66
2021/10/20 08:03:52;;;;;;;14.90;10.10;;;;;;;-140.79;100.00;63287.88;5002691;28;20059;-65
2021/10/20 08:06:18;;;;;;;15.82;10.20;;;;;;;-140.79;100.00;63287.88;5009754;28;20083;-65
2021/10/20 08:08:43;;;;;;;15.10;9.88;;;;;;;-140.79;100.00;63287.88;5004841;28;20448;-65
2021/10/20 08:11:09;;;;;;;15.15;9.68;;;;;;;-140.79;100.00;63287.88;5003464;28;20049;-65
2021/10/20 08:13:34;;;;;;;15.38;9.90;;;;;;;-140.79;100.00;63287.88;5001178;28;20034;-65
2021/10/20 08:16:00;;;;;;;15.80;9.90;;;;;;;-140.79;100.00;63287.88;4976533;28;20543;-65
2021/10/20 08:18:25;;;;;;;14.77;9.98;;;;;;;-140.79;100.00;63287.88;4986608;28;20030;-65
2021/10/20 08:20:51;;;;;;;16.02;9.77;;;;;;;-140.79;100.00;63287.88;5005120;28;20467;-66
2021/10/20 08:23:16;;;;;;;14.75;9.73;;;;;;;-140.79;100.00;63287.88;4999005;28;20042;-66
2021/10/20 08:25:41;;;;;;;17.33;9.90;;;;;;;-140.79;100.00;63287.88;4968333;28;20045;-65
2021/10/20 08:28:07;;;;;;;14.55;10.07;;;;;;;-140.79;100.00;63287.88;4997159;28;20030;-66
2021/10/20 08:30:34;;;;;;;13.20;9.88;;;;;;;-140.79;100.00;63287.88;5005598;28;20030;-63
2021/10/20 08:32:59;;;;;;;15.95;9.90;;;;;;;-140.79;100.00;63287.88;5003552;28;20030;-64
2021/10/20 08:35:25;;;;;;;15.13;9.75;;;;;;;-140.79;100.00;63287.88;4987305;28;20503;-64
2021/10/20 08:37:56;;;;;;;14.70;10.13;;;;;;;-140.79;100.00;63287.88;4986102;28;20524;-64
2021/10/20 08:40:29;;;;;;;15.82;9.45;;;;;;;-140.79;100.00;63287.88;4982224;28;20038;-62
2021/10/20 08:42:54;;;;;;;13.48;9.60;;;;;;;-140.79;100.00;63287.88;4982935;28;20030;-62
2021/10/20 08:45:20;;;;;;;13.55;9.15;;;;;;;-140.79;100.00;63287.88;4961154;28;20141;-62
2021/10/20 08:47:47;;;;;;;14.02;8.95;;;;;;;-140.79;100.00;63287.88;5005000;28;20568;-62
2021/10/20 08:50:16;;;;;;;14.18;9.30;;;;;;;-140.79;100.00;63287.88;5001334;28;20497;-65
2021/10/20 08:52:42;;;;;;;15.05;8.88;;;;;;;-140.79;100.00;63287.88;4977275;28;20032;-63
2021/10/20 08:55:08;;;;;;;13.93;9.52;;;;;;;-140.79;100.00;63287.88;5005113;28;20033;-63
2021/10/20 08:57:34;;;;;;;14.48;9.80;;;;;;;-140.79;100.00;63287.88;5023249;28;20029;-61
2021/10/20 09:00:06;;;;;;;14.07;9.38;;;;;;;-140.79;100.00;63287.88;5024314;28;20503;-62
2021/10/20 09:02:38;;;;;;;15.77;9.35;;;;;;;-140.79;100.00;63287.88;5001153;28;20077;-62
2021/10/20 09:05:04;;;;;;;12.23;8.93;;;;;;;-140.79;100.00;63287.88;5000689;28;20117;-62
2021/10/20 09:07:29;;;;;;;13.63;8.73;;;;;;;-140.79;100.00;63287.88;5003280;28;20150;-62
2021/10/20 09:09:55;;;;;;;13.68;8.90;;;;;;;-140.79;100.00;63287.88;5002937;28;20041;-62
2021/10/20 09:12:27;;;;;;;14.52;9.07;;;;;;;-140.79;100.00;63287.88;5005650;28;20423;-62
2021/10/20 09:14:57;;;;;;;14.60;8.82;;;;;;;-140.79;100.00;63287.88;5003161;28;20072;-62
2021/10/20 09:17:23;;;;;;;14.02;9.13;;;;;;;-140.79;100.00;63287.88;4986176;28;20057;-63
2021/10/20 09:19:49;;;;;;;12.93;9.48;;;;;;;-140.79;100.00;63287.88;4984795;28;20026;-63
2021/10/20 09:22:14;;;;;;;15.43;9.85;;;;;;;-140.79;100.00;63287.88;5003232;28;20040;-61
2021/10/20 09:24:43;;;;;;;14.93;9.73;;;;;;;-140.79;100.00;63287.88;5005184;28;20096;-63
2021/10/20 09:27:25;;;;;;;14.75;9.73;;;;;;;-140.79;100.00;63287.88;5006624;28;20037;-63
2021/10/20 09:30:07;;;;;;;15.43;9.55;;;;;;;-140.79;100.00;63287.88;4987000;28;20026;-63
2021/10/20 09:32:33;;;;;;;16.27;8.82;;;;;;;-140.79;100.00;63287.88;5014811;28;20610;-63
2021/10/20 09:34:58;;;;;;;15.27;9.32;;;;;;;-140.79;100.00;63287.88;5009107;28;20033;-62
2021/10/20 09:37:24;;;;;;;13.60;8.88;;;;;;;-140.79;100.00;63287.88;5010342;28;20682;-62
2021/10/20 09:39:49;;;;;;;15.43;8.85;;;;;;;-140.79;100.00;63287.88;5005315;28;20021;-62
2021/10/20 09:42:17;;;;;;;13.52;9.38;;;;;;;-140.79;100.00;63287.88;5014960;28;20022;-63
2021/10/20 09:44:52;;;;;;;14.15;9.02;;;;;;;-140.79;100.00;63287.88;5023958;28;20523;-63
2021/10/20 09:47:18;;;;;;;13.15;8.63;;;;;;;-140.79;100.00;63287.88;5015599;28;20026;-64
2021/10/20 09:49:47;;;;;;;12.90;8.57;;;;;;;-140.79;100.00;63287.88;5023666;28;20056;-62
2021/10/20 09:52:13;;;;;;;14.10;9.00;;;;;;;-140.79;100.00;63287.88;5019542;28;20495;-63
2021/10/20 09:54:41;;;;;;;11.63;8.15;;;;;;;-140.79;100.00;63287.88;5020719;28;20092;-64
2021/10/20 09:57:06;;;;;;;14.10;8.52;;;;;;;-140.79;100.00;63287.88;5020141;28;20057;-63
2021/10/20 09:59:32;;;;;;;14.77;8.68;;;;;;;-140.79;100.00;63287.88;5014881;28;20018;-62
2021/10/20 10:01:57;;;;;;;12.82;8.82;;;;;;;-140.79;100.00;63287.88;4998120;28;20022;-62
2021/10/20 10:04:25;;;;;;;12.52;8.88;;;;;;;-140.79;100.00;63287.88;5021019;28;20095;-65
2021/10/20 10:06:50;;;;;;;11.68;8.45;;;;;;;-140.79;100.00;63287.88;5015251;28;20045;-65
2021/10/20 10:09:15;;;;;;;11.70;7.25;;;;;;;-140.79;100.00;63287.88;5004080;28;20044;-65
2021/10/20 10:11:52;;;;;;;11.70;7.63;;;;;;;-140.79;100.00;63287.88;5005217;28;20034;-65
2021/10/20 10:14:19;;;;;;;12.63;8.82;;;;;;;-140.79;100.00;63287.88;4961942;28;20125;-66
2021/10/20 10:16:45;;;;;;;12.90;8.52;;;;;;;-140.79;100.00;63287.88;5000128;28;20037;-66
2021/10/20 10:19:11;;;;;;;11.07;8.15;;;;;;;-140.79;100.00;63287.88;5005668;28;20049;-66
2021/10/20 10:21:40;;;;;;;12.25;8.30;;;;;;;-140.79;100.00;63287.88;4978745;28;20048;-64
2021/10/20 10:24:11;;;;;;;11.82;7.85;;;;;;;-140.79;100.00;63287.88;5002940;28;20415;-65
2021/10/20 10:26:37;;;;;;;11.40;7.63;;;;;;;-140.79;100.00;63287.88;5004741;28;20030;-65
2021/10/20 10:29:08;;;;;;;11.68;7.75;;;;;;;-140.79;100.00;63287.88;5005018;28;20108;-64
2021/10/20 10:31:35;;;;;;;11.70;7.68;;;;;;;-140.79;100.00;63287.88;5004034;28;20022;-64
2021/10/20 10:34:01;;;;;;;12.52;7.95;;;;;;;-140.79;100.00;63287.88;5005518;28;20037;-64
2021/10/20 10:36:26;;;;;;;10.85;7.15;;;;;;;-140.79;100.00;63287.88;4982694;28;20030;-64
2021/10/20 10:38:58;;;;;;;11.23;8.50;;;;;;;-140.79;100.00;63287.88;5002413;28;20022;-64
2021/10/20 10:41:33;;;;;;;12.00;7.97;;;;;;;-140.79;100.00;63287.88;5004736;28;20032;-64
2021/10/20 10:44:08;;;;;;;11.25;6.70;;;;;;;-140.79;100.00;63287.88;5004641;28;20156;-65
2021/10/20 10:47:02;;;;;;;11.02;7.18;;;;;;;-140.79;100.00;63287.88;5003675;28;20049;-64
2021/10/20 10:49:39;;;;;;;12.15;7.35;;;;;;;-140.79;100.00;63287.88;5003701;28;20034;-65
2021/10/20 10:52:16;;;;;;;10.85;7.38;;;;;;;-140.79;100.00;63287.88;5004226;28;20246;-65
2021/10/20 10:54:55;;;;;;;10.20;7.15;;;;;;;-140.79;100.00;63287.88;5009193;28;20037;-63
2021/10/20 10:57:21;;;;;;;10.10;7.72;;;;;;;-140.79;100.00;63287.88;5012640;28;20075;-64
2021/10/20 10:59:53;;;;;;;9.48;7.05;;;;;;;-140.79;100.00;63287.88;5005787;28;20018;-64
2021/10/20 11:05:08;;;;;;;11.32;7.22;;;;;;;;;;5056215;28;20399;-65